sensor_id;sensor_type;location;lat;lon;timestamp;temperature;humidity
23839;DHT22;12100;44.384;20.272;2022-11-18T00:02:18;7.20;99.90
23839;DHT22;12100;44.384;20.272;2022-11-18T00:04:44;7.30;99.90
23839;DHT22;12100;44.384;20.272;2022-11-18T00:07:10;7.20;99.90
23839;DHT22;12100;44.384;20.272;2022-11-18T00:09:36;7.10;99.90
23839;DHT22;12100;44.384;20.272;2022-11-18T00:12:02;7.00;99.90
23839;DHT22;12100;44.384;20.272;2022-11-18T00:14:46;7.00;99.90
23839;DHT22;12100;44.384;20.272;2022-11-18T00:17:12;6.90;99.90
23839;DHT22;12100;44.384;20.272;2022-11-18T00:19:38;6.90;99.90
23839;DHT22;12100;44.384;20.272;2022-11-18T00:22:06;6.80;99.90
23839;DHT22;12100;44.384;20.272;2022-11-18T00:24:32;6.70;99.90
23839;DHT22;12100;44.384;20.272;2022-11-18T00:26:58;6.60;99.90
23839;DHT22;12100;44.384;20.272;2022-11-18T00:29:24;6.50;99.90
23839;DHT22;12100;44.384;20.272;2022-11-18T00:34:23;6.30;99.90
23839;DHT22;12100;44.384;20.272;2022-11-18T00:36:49;6.30;99.90
23839;DHT22;12100;44.384;20.272;2022-11-18T00:39:16;6.30;99.90
23839;DHT22;12100;44.384;20.272;2022-11-18T00:41:43;6.30;99.90
23839;DHT22;12100;44.384;20.272;2022-11-18T00:44:27;6.30;99.90
23839;DHT22;12100;44.384;20.272;2022-11-18T00:46:53;6.20;99.90
23839;DHT22;12100;44.384;20.272;2022-11-18T00:49:19;6.20;99.90
23839;DHT22;12100;44.384;20.272;2022-11-18T00:51:45;6.30;99.90
23839;DHT22;12100;44.384;20.272;2022-11-18T00:54:11;6.20;99.90
23839;DHT22;12100;44.384;20.272;2022-11-18T00:56:37;6.20;99.90
23839;DHT22;12100;44.384;20.272;2022-11-18T00:59:03;6.10;99.90
23839;DHT22;12100;44.384;20.272;2022-11-18T01:01:29;6.10;99.90
23839;DHT22;12100;44.384;20.272;2022-11-18T01:03:54;6.20;99.90
23839;DHT22;12100;44.384;20.272;2022-11-18T01:06:20;6.10;99.90
23839;DHT22;12100;44.384;20.272;2022-11-18T01:08:46;6.10;99.90
23839;DHT22;12100;44.384;20.272;2022-11-18T01:11:12;6.00;99.90
23839;DHT22;12100;44.384;20.272;2022-11-18T01:13:56;5.90;99.90
23839;DHT22;12100;44.384;20.272;2022-11-18T01:16:25;6.00;99.90
23839;DHT22;12100;44.384;20.272;2022-11-18T01:18:51;5.90;99.90
23839;DHT22;12100;44.384;20.272;2022-11-18T01:21:17;5.80;99.90
23839;DHT22;12100;44.384;20.272;2022-11-18T01:23:43;5.70;99.90
23839;DHT22;12100;44.384;20.272;2022-11-18T01:26:11;5.70;99.90
23839;DHT22;12100;44.384;20.272;2022-11-18T01:28:38;5.70;99.90
23839;DHT22;12100;44.384;20.272;2022-11-18T01:31:12;5.70;99.90
23839;DHT22;12100;44.384;20.272;2022-11-18T01:33:39;5.70;99.90
23839;DHT22;12100;44.384;20.272;2022-11-18T01:36:17;5.70;99.90
23839;DHT22;12100;44.384;20.272;2022-11-18T01:38:44;5.60;99.90
23839;DHT22;12100;44.384;20.272;2022-11-18T01:41:10;5.50;99.90
23839;DHT22;12100;44.384;20.272;2022-11-18T01:44:01;5.50;99.90
23839;DHT22;12100;44.384;20.272;2022-11-18T01:46:30;5.50;99.90
23839;DHT22;12100;44.384;20.272;2022-11-18T01:49:03;5.50;99.90
23839;DHT22;12100;44.384;20.272;2022-11-18T01:51:38;5.50;99.90
23839;DHT22;12100;44.384;20.272;2022-11-18T01:54:12;5.50;99.90
23839;DHT22;12100;44.384;20.272;2022-11-18T01:56:43;5.40;99.90
23839;DHT22;12100;44.384;20.272;2022-11-18T01:59:22;5.30;99.90
23839;DHT22;12100;44.384;20.272;2022-11-18T02:01:49;5.30;99.90
23839;DHT22;12100;44.384;20.272;2022-11-18T02:04:14;5.20;99.90
23839;DHT22;12100;44.384;20.272;2022-11-18T02:06:44;5.20;99.90
23839;DHT22;12100;44.384;20.272;2022-11-18T02:09:13;5.10;99.90
23839;DHT22;12100;44.384;20.272;2022-11-18T02:11:40;5.10;99.90
23839;DHT22;12100;44.384;20.272;2022-11-18T02:14:26;5.20;99.90
23839;DHT22;12100;44.384;20.272;2022-11-18T02:17:24;5.20;99.90
23839;DHT22;12100;44.384;20.272;2022-11-18T02:28:34;5.50;99.90
23839;DHT22;12100;44.384;20.272;2022-11-18T02:33:42;5.60;99.90
23839;DHT22;12100;44.384;20.272;2022-11-18T02:36:31;5.50;99.90
23839;DHT22;12100;44.384;20.272;2022-11-18T02:39:07;5.50;99.90
23839;DHT22;12100;44.384;20.272;2022-11-18T02:41:34;5.50;99.90
23839;DHT22;12100;44.384;20.272;2022-11-18T02:44:12;5.60;99.90
23839;DHT22;12100;44.384;20.272;2022-11-18T02:46:40;5.60;99.90
23839;DHT22;12100;44.384;20.272;2022-11-18T02:49:15;5.70;99.90
23839;DHT22;12100;44.384;20.272;2022-11-18T02:51:44;5.70;99.90
23839;DHT22;12100;44.384;20.272;2022-11-18T02:54:12;5.80;99.90
23839;DHT22;12100;44.384;20.272;2022-11-18T02:56:41;5.80;99.90
23839;DHT22;12100;44.384;20.272;2022-11-18T02:59:08;5.90;99.90
23839;DHT22;12100;44.384;20.272;2022-11-18T03:01:34;5.90;99.90
23839;DHT22;12100;44.384;20.272;2022-11-18T03:04:01;5.90;99.90
23839;DHT22;12100;44.384;20.272;2022-11-18T03:06:36;5.90;99.90
23839;DHT22;12100;44.384;20.272;2022-11-18T03:24:55;6.20;99.90
23839;DHT22;12100;44.384;20.272;2022-11-18T03:27:32;6.20;99.90
23839;DHT22;12100;44.384;20.272;2022-11-18T03:30:08;6.10;99.90
23839;DHT22;12100;44.384;20.272;2022-11-18T03:32:41;6.10;99.90
23839;DHT22;12100;44.384;20.272;2022-11-18T03:35:15;6.00;99.90
23839;DHT22;12100;44.384;20.272;2022-11-18T03:37:42;6.00;99.90
23839;DHT22;12100;44.384;20.272;2022-11-18T03:40:17;5.90;99.90
23839;DHT22;12100;44.384;20.272;2022-11-18T03:42:49;5.90;99.90
23839;DHT22;12100;44.384;20.272;2022-11-18T03:45:23;5.80;99.90
23839;DHT22;12100;44.384;20.272;2022-11-18T03:48:12;5.80;99.90
23839;DHT22;12100;44.384;20.272;2022-11-18T03:50:45;5.80;99.90
23839;DHT22;12100;44.384;20.272;2022-11-18T03:53:12;5.80;99.90
23839;DHT22;12100;44.384;20.272;2022-11-18T03:55:41;5.70;99.90
23839;DHT22;12100;44.384;20.272;2022-11-18T04:00:48;5.60;99.90
23839;DHT22;12100;44.384;20.272;2022-11-18T04:03:15;5.60;99.90
23839;DHT22;12100;44.384;20.272;2022-11-18T04:05:42;5.60;99.90
23839;DHT22;12100;44.384;20.272;2022-11-18T04:08:20;5.60;99.90
23839;DHT22;12100;44.384;20.272;2022-11-18T04:11:08;5.50;99.90
23839;DHT22;12100;44.384;20.272;2022-11-18T04:13:56;5.40;99.90
23839;DHT22;12100;44.384;20.272;2022-11-18T04:16:22;5.40;99.90
23839;DHT22;12100;44.384;20.272;2022-11-18T04:18:48;5.30;99.90
23839;DHT22;12100;44.384;20.272;2022-11-18T04:21:14;5.20;99.90
23839;DHT22;12100;44.384;20.272;2022-11-18T04:23:40;5.10;99.90
23839;DHT22;12100;44.384;20.272;2022-11-18T04:26:05;5.00;99.90
23839;DHT22;12100;44.384;20.272;2022-11-18T04:28:31;4.90;99.90
23839;DHT22;12100;44.384;20.272;2022-11-18T04:30:57;4.80;99.90
23839;DHT22;12100;44.384;20.272;2022-11-18T04:33:23;4.70;99.90
23839;DHT22;12100;44.384;20.272;2022-11-18T04:35:48;4.70;99.90
23839;DHT22;12100;44.384;20.272;2022-11-18T04:38:14;4.60;99.90
23839;DHT22;12100;44.384;20.272;2022-11-18T04:40:40;4.50;99.90
23839;DHT22;12100;44.384;20.272;2022-11-18T04:43:06;4.60;99.90
23839;DHT22;12100;44.384;20.272;2022-11-18T04:45:31;4.60;99.90
23839;DHT22;12100;44.384;20.272;2022-11-18T04:47:57;4.60;99.90
23839;DHT22;12100;44.384;20.272;2022-11-18T04:50:23;4.70;99.90
23839;DHT22;12100;44.384;20.272;2022-11-18T04:52:49;4.70;99.90
23839;DHT22;12100;44.384;20.272;2022-11-18T04:55:14;4.80;99.90
23839;DHT22;12100;44.384;20.272;2022-11-18T04:57:40;4.80;99.90
23839;DHT22;12100;44.384;20.272;2022-11-18T05:00:06;4.80;99.90
23839;DHT22;12100;44.384;20.272;2022-11-18T05:02:32;4.80;99.90
23839;DHT22;12100;44.384;20.272;2022-11-18T05:04:58;4.80;99.90
23839;DHT22;12100;44.384;20.272;2022-11-18T05:07:24;4.80;99.90
23839;DHT22;12100;44.384;20.272;2022-11-18T05:09:50;4.90;99.90
23839;DHT22;12100;44.384;20.272;2022-11-18T05:12:15;4.90;99.90
23839;DHT22;12100;44.384;20.272;2022-11-18T05:15:00;4.90;99.90
23839;DHT22;12100;44.384;20.272;2022-11-18T05:17:25;4.90;99.90
23839;DHT22;12100;44.384;20.272;2022-11-18T05:19:51;4.80;99.90
23839;DHT22;12100;44.384;20.272;2022-11-18T05:22:17;4.90;99.90
23839;DHT22;12100;44.384;20.272;2022-11-18T05:24:43;4.90;99.90
23839;DHT22;12100;44.384;20.272;2022-11-18T05:27:10;5.10;99.90
23839;DHT22;12100;44.384;20.272;2022-11-18T05:29:36;5.10;99.90
23839;DHT22;12100;44.384;20.272;2022-11-18T05:32:02;5.10;99.90
23839;DHT22;12100;44.384;20.272;2022-11-18T05:34:28;5.20;99.90
23839;DHT22;12100;44.384;20.272;2022-11-18T05:36:53;5.30;99.90
23839;DHT22;12100;44.384;20.272;2022-11-18T05:39:19;5.40;99.90
23839;DHT22;12100;44.384;20.272;2022-11-18T05:41:45;5.50;99.90
23839;DHT22;12100;44.384;20.272;2022-11-18T05:44:29;5.60;99.90
23839;DHT22;12100;44.384;20.272;2022-11-18T05:46:55;5.80;99.90
23839;DHT22;12100;44.384;20.272;2022-11-18T05:49:21;5.90;99.90
23839;DHT22;12100;44.384;20.272;2022-11-18T05:51:47;6.40;99.90
23839;DHT22;12100;44.384;20.272;2022-11-18T05:54:13;7.20;99.90
23839;DHT22;12100;44.384;20.272;2022-11-18T05:56:42;8.10;99.90
23839;DHT22;12100;44.384;20.272;2022-11-18T05:59:11;9.10;99.90
23839;DHT22;12100;44.384;20.272;2022-11-18T06:04:20;10.80;94.80
23839;DHT22;12100;44.384;20.272;2022-11-18T06:06:48;11.30;92.90
23839;DHT22;12100;44.384;20.272;2022-11-18T06:09:17;10.90;92.80
23839;DHT22;12100;44.384;20.272;2022-11-18T06:11:48;10.70;92.70
23839;DHT22;12100;44.384;20.272;2022-11-18T06:14:23;10.10;93.40
23839;DHT22;12100;44.384;20.272;2022-11-18T06:16:55;9.50;94.50
23839;DHT22;12100;44.384;20.272;2022-11-18T06:19:21;9.10;96.00
23839;DHT22;12100;44.384;20.272;2022-11-18T06:21:48;9.90;97.70
23839;DHT22;12100;44.384;20.272;2022-11-18T06:24:14;11.70;93.00
23839;DHT22;12100;44.384;20.272;2022-11-18T06:26:41;12.80;92.90
23839;DHT22;12100;44.384;20.272;2022-11-18T06:29:09;12.20;92.70
23839;DHT22;12100;44.384;20.272;2022-11-18T06:31:35;11.50;93.40
23839;DHT22;12100;44.384;20.272;2022-11-18T06:34:01;11.30;93.70
23839;DHT22;12100;44.384;20.272;2022-11-18T06:36:27;12.10;91.60
23839;DHT22;12100;44.384;20.272;2022-11-18T06:38:53;11.20;92.90
23839;DHT22;12100;44.384;20.272;2022-11-18T06:41:19;13.40;90.30
23839;DHT22;12100;44.384;20.272;2022-11-18T06:43:44;15.60;90.40
23839;DHT22;12100;44.384;20.272;2022-11-18T06:46:19;15.80;78.10
23839;DHT22;12100;44.384;20.272;2022-11-18T06:49:03;18.30;69.70
23839;DHT22;12100;44.384;20.272;2022-11-18T06:51:29;18.10;70.90
23839;DHT22;12100;44.384;20.272;2022-11-18T06:53:55;18.60;67.30
23839;DHT22;12100;44.384;20.272;2022-11-18T06:56:21;17.60;68.90
23839;DHT22;12100;44.384;20.272;2022-11-18T06:58:52;16.70;72.70
23839;DHT22;12100;44.384;20.272;2022-11-18T07:01:30;15.50;76.80
23839;DHT22;12100;44.384;20.272;2022-11-18T07:03:57;14.80;80.20
23839;DHT22;12100;44.384;20.272;2022-11-18T07:06:26;14.50;82.50
23839;DHT22;12100;44.384;20.272;2022-11-18T07:08:52;15.90;79.20
23839;DHT22;12100;44.384;20.272;2022-11-18T07:11:20;18.50;73.40
23839;DHT22;12100;44.384;20.272;2022-11-18T07:13:47;17.00;73.70
23839;DHT22;12100;44.384;20.272;2022-11-18T07:16:17;15.50;78.80
23839;DHT22;12100;44.384;20.272;2022-11-18T07:18:45;15.00;81.60
23839;DHT22;12100;44.384;20.272;2022-11-18T07:21:16;14.10;84.20
23839;DHT22;12100;44.384;20.272;2022-11-18T07:23:42;13.70;86.40
23839;DHT22;12100;44.384;20.272;2022-11-18T07:26:08;13.20;88.10
23839;DHT22;12100;44.384;20.272;2022-11-18T07:28:34;12.70;90.60
23839;DHT22;12100;44.384;20.272;2022-11-18T07:33:37;11.60;92.80
23839;DHT22;12100;44.384;20.272;2022-11-18T07:36:16;11.00;95.00
23839;DHT22;12100;44.384;20.272;2022-11-18T07:38:43;10.50;98.10
23839;DHT22;12100;44.384;20.272;2022-11-18T07:41:20;10.50;99.70
23839;DHT22;12100;44.384;20.272;2022-11-18T07:43:47;10.40;99.90
23839;DHT22;12100;44.384;20.272;2022-11-18T07:48:53;10.60;99.90
23839;DHT22;12100;44.384;20.272;2022-11-18T07:51:20;10.40;99.90
23839;DHT22;12100;44.384;20.272;2022-11-18T07:53:47;10.30;99.90
23839;DHT22;12100;44.384;20.272;2022-11-18T07:56:13;10.30;99.90
23839;DHT22;12100;44.384;20.272;2022-11-18T07:58:40;10.40;99.90
23839;DHT22;12100;44.384;20.272;2022-11-18T08:01:07;10.60;99.90
23839;DHT22;12100;44.384;20.272;2022-11-18T08:03:33;12.80;99.90
23839;DHT22;12100;44.384;20.272;2022-11-18T08:06:00;17.70;86.90
23839;DHT22;12100;44.384;20.272;2022-11-18T08:10:57;22.30;66.70
23839;DHT22;12100;44.384;20.272;2022-11-18T08:13:23;28.80;46.90
23839;DHT22;12100;44.384;20.272;2022-11-18T08:20:42;32.40;36.30
23839;DHT22;12100;44.384;20.272;2022-11-18T08:23:10;34.20;34.50
23839;DHT22;12100;44.384;20.272;2022-11-18T08:25:36;33.40;34.70
23839;DHT22;12100;44.384;20.272;2022-11-18T08:28:02;33.10;35.60
23839;DHT22;12100;44.384;20.272;2022-11-18T08:30:28;34.20;34.30
23839;DHT22;12100;44.384;20.272;2022-11-18T08:32:54;33.20;34.70
23839;DHT22;12100;44.384;20.272;2022-11-18T08:35:20;32.70;34.70
23839;DHT22;12100;44.384;20.272;2022-11-18T08:37:46;31.70;37.00
23839;DHT22;12100;44.384;20.272;2022-11-18T08:40:12;30.80;38.50
23839;DHT22;12100;44.384;20.272;2022-11-18T08:42:37;30.20;39.90
23839;DHT22;12100;44.384;20.272;2022-11-18T08:45:04;28.00;43.90
23839;DHT22;12100;44.384;20.272;2022-11-18T08:47:33;27.50;45.30
23839;DHT22;12100;44.384;20.272;2022-11-18T08:49:59;26.40;47.10
23839;DHT22;12100;44.384;20.272;2022-11-18T08:52:25;26.70;47.30
23839;DHT22;12100;44.384;20.272;2022-11-18T08:54:51;25.90;47.60
23839;DHT22;12100;44.384;20.272;2022-11-18T09:02:13;25.80;47.80
23839;DHT22;12100;44.384;20.272;2022-11-18T09:04:40;24.80;51.50
23839;DHT22;12100;44.384;20.272;2022-11-18T09:07:06;26.70;48.70
23839;DHT22;12100;44.384;20.272;2022-11-18T09:09:32;27.60;47.40
23839;DHT22;12100;44.384;20.272;2022-11-18T09:11:58;27.00;47.70
23839;DHT22;12100;44.384;20.272;2022-11-18T09:14:24;25.40;49.90
23839;DHT22;12100;44.384;20.272;2022-11-18T09:16:50;24.60;53.20
23839;DHT22;12100;44.384;20.272;2022-11-18T09:26:36;24.20;54.30
23839;DHT22;12100;44.384;20.272;2022-11-18T09:29:02;21.20;63.50
23839;DHT22;12100;44.384;20.272;2022-11-18T09:31:28;22.50;57.80
23839;DHT22;12100;44.384;20.272;2022-11-18T09:33:54;23.50;55.30
23839;DHT22;12100;44.384;20.272;2022-11-18T09:38:47;21.60;61.50
23839;DHT22;12100;44.384;20.272;2022-11-18T09:49:15;19.80;67.70
23839;DHT22;12100;44.384;20.272;2022-11-18T09:51:46;20.00;66.80
23839;DHT22;12100;44.384;20.272;2022-11-18T09:54:24;20.20;64.50
23839;DHT22;12100;44.384;20.272;2022-11-18T09:56:52;20.20;64.50
23839;DHT22;12100;44.384;20.272;2022-11-18T09:59:24;20.30;64.20
23839;DHT22;12100;44.384;20.272;2022-11-18T10:01:54;20.40;63.80
23839;DHT22;12100;44.384;20.272;2022-11-18T10:04:21;20.30;63.60
23839;DHT22;12100;44.384;20.272;2022-11-18T10:06:48;20.60;63.00
23839;DHT22;12100;44.384;20.272;2022-11-18T10:22:52;21.00;62.70
23839;DHT22;12100;44.384;20.272;2022-11-18T10:25:19;20.70;63.20
23839;DHT22;12100;44.384;20.272;2022-11-18T10:27:47;20.60;64.10
23839;DHT22;12100;44.384;20.272;2022-11-18T10:30:22;20.00;65.40
23839;DHT22;12100;44.384;20.272;2022-11-18T10:40:30;19.50;66.40
23839;DHT22;12100;44.384;20.272;2022-11-18T10:42:58;19.20;68.10
23839;DHT22;12100;44.384;20.272;2022-11-18T10:45:29;18.90;68.90
23839;DHT22;12100;44.384;20.272;2022-11-18T11:00:47;18.70;69.00
23839;DHT22;12100;44.384;20.272;2022-11-18T11:05:45;17.90;72.50
23839;DHT22;12100;44.384;20.272;2022-11-18T11:08:21;17.70;73.00
23839;DHT22;12100;44.384;20.272;2022-11-18T11:10:57;17.60;74.10
23839;DHT22;12100;44.384;20.272;2022-11-18T11:13:26;17.30;74.70
23839;DHT22;12100;44.384;20.272;2022-11-18T11:15:55;17.20;74.30
23839;DHT22;12100;44.384;20.272;2022-11-18T11:18:31;17.10;75.50
23839;DHT22;12100;44.384;20.272;2022-11-18T11:21:18;17.00;76.90
23839;DHT22;12100;44.384;20.272;2022-11-18T11:23:45;16.90;77.90
23839;DHT22;12100;44.384;20.272;2022-11-18T11:26:39;16.70;79.80
23839;DHT22;12100;44.384;20.272;2022-11-18T11:35:11;16.30;81.30
23839;DHT22;12100;44.384;20.272;2022-11-18T11:41:23;16.10;83.20
23839;DHT22;12100;44.384;20.272;2022-11-18T11:47:08;15.40;92.70
23839;DHT22;12100;44.384;20.272;2022-11-18T11:55:21;14.90;98.90
23839;DHT22;12100;44.384;20.272;2022-11-18T12:00:44;14.90;99.90
23839;DHT22;12100;44.384;20.272;2022-11-18T12:03:39;14.90;99.90
23839;DHT22;12100;44.384;20.272;2022-11-18T12:06:09;14.80;99.90
23839;DHT22;12100;44.384;20.272;2022-11-18T12:08:46;14.80;99.90
23839;DHT22;12100;44.384;20.272;2022-11-18T12:11:56;14.80;99.90
23839;DHT22;12100;44.384;20.272;2022-11-18T12:19:14;14.90;99.90
23839;DHT22;12100;44.384;20.272;2022-11-18T12:24:32;14.90;99.90
23839;DHT22;12100;44.384;20.272;2022-11-18T12:32:29;15.10;99.90
23839;DHT22;12100;44.384;20.272;2022-11-18T12:37:37;15.30;97.90
23839;DHT22;12100;44.384;20.272;2022-11-18T12:40:03;15.30;97.80
23839;DHT22;12100;44.384;20.272;2022-11-18T12:42:46;15.30;98.90
23839;DHT22;12100;44.384;20.272;2022-11-18T12:48:40;15.10;98.80
23839;DHT22;12100;44.384;20.272;2022-11-18T12:51:39;15.10;98.90
23839;DHT22;12100;44.384;20.272;2022-11-18T12:56:49;15.10;98.70
23839;DHT22;12100;44.384;20.272;2022-11-18T12:59:24;15.20;98.10
23839;DHT22;12100;44.384;20.272;2022-11-18T13:02:01;15.20;98.70
23839;DHT22;12100;44.384;20.272;2022-11-18T13:04:27;15.30;96.70
23839;DHT22;12100;44.384;20.272;2022-11-18T13:06:52;15.20;97.90
23839;DHT22;12100;44.384;20.272;2022-11-18T13:09:24;15.20;98.30
23839;DHT22;12100;44.384;20.272;2022-11-18T13:11:59;15.20;98.10
23839;DHT22;12100;44.384;20.272;2022-11-18T13:14:32;15.20;97.80
23839;DHT22;12100;44.384;20.272;2022-11-18T13:17:26;15.20;96.90
23839;DHT22;12100;44.384;20.272;2022-11-18T13:20:25;15.30;97.20
23839;DHT22;12100;44.384;20.272;2022-11-18T13:26:13;15.20;97.30
23839;DHT22;12100;44.384;20.272;2022-11-18T13:28:44;15.30;96.80
23839;DHT22;12100;44.384;20.272;2022-11-18T13:34:23;15.30;96.40
23839;DHT22;12100;44.384;20.272;2022-11-18T13:36:54;15.50;95.60
23839;DHT22;12100;44.384;20.272;2022-11-18T13:39:29;15.50;95.40
23839;DHT22;12100;44.384;20.272;2022-11-18T13:42:06;15.60;95.00
23839;DHT22;12100;44.384;20.272;2022-11-18T13:44:38;15.70;94.40
23839;DHT22;12100;44.384;20.272;2022-11-18T13:47:12;15.70;94.10
23839;DHT22;12100;44.384;20.272;2022-11-18T13:49:51;15.70;94.00
23839;DHT22;12100;44.384;20.272;2022-11-18T13:52:30;15.70;93.70
23839;DHT22;12100;44.384;20.272;2022-11-18T13:54:59;15.70;94.00
23839;DHT22;12100;44.384;20.272;2022-11-18T13:57:26;15.70;93.80
23839;DHT22;12100;44.384;20.272;2022-11-18T13:59:53;15.70;93.80
23839;DHT22;12100;44.384;20.272;2022-11-18T14:02:20;15.70;93.70
23839;DHT22;12100;44.384;20.272;2022-11-18T14:04:55;15.60;93.90
23839;DHT22;12100;44.384;20.272;2022-11-18T14:07:33;15.60;93.70
23839;DHT22;12100;44.384;20.272;2022-11-18T14:10:02;15.60;94.00
23839;DHT22;12100;44.384;20.272;2022-11-18T14:12:31;15.60;94.00
23839;DHT22;12100;44.384;20.272;2022-11-18T14:17:56;15.50;94.00
23839;DHT22;12100;44.384;20.272;2022-11-18T14:20:25;15.50;94.00
23839;DHT22;12100;44.384;20.272;2022-11-18T14:23:00;15.50;93.80
23839;DHT22;12100;44.384;20.272;2022-11-18T14:25:32;15.50;93.80
23839;DHT22;12100;44.384;20.272;2022-11-18T14:28:36;15.50;93.80
23839;DHT22;12100;44.384;20.272;2022-11-18T14:31:04;15.50;93.60
23839;DHT22;12100;44.384;20.272;2022-11-18T14:33:35;15.50;93.40
23839;DHT22;12100;44.384;20.272;2022-11-18T14:36:14;15.50;93.40
23839;DHT22;12100;44.384;20.272;2022-11-18T14:38:50;15.50;93.50
23839;DHT22;12100;44.384;20.272;2022-11-18T14:41:18;15.50;93.50
23839;DHT22;12100;44.384;20.272;2022-11-18T14:44:04;15.50;93.10
23839;DHT22;12100;44.384;20.272;2022-11-18T14:46:31;15.60;93.20
23839;DHT22;12100;44.384;20.272;2022-11-18T14:49:01;15.60;93.00
23839;DHT22;12100;44.384;20.272;2022-11-18T14:51:27;15.60;93.10
23839;DHT22;12100;44.384;20.272;2022-11-18T14:53:53;15.60;93.00
23839;DHT22;12100;44.384;20.272;2022-11-18T14:58:50;15.60;92.90
23839;DHT22;12100;44.384;20.272;2022-11-18T15:01:16;15.70;92.30
23839;DHT22;12100;44.384;20.272;2022-11-18T15:03:42;15.70;92.00
23839;DHT22;12100;44.384;20.272;2022-11-18T15:06:13;15.80;91.80
23839;DHT22;12100;44.384;20.272;2022-11-18T15:08:39;15.80;91.70
23839;DHT22;12100;44.384;20.272;2022-11-18T15:11:05;15.80;91.90
23839;DHT22;12100;44.384;20.272;2022-11-18T15:13:31;15.70;92.20
23839;DHT22;12100;44.384;20.272;2022-11-18T15:15:57;15.80;92.00
23839;DHT22;12100;44.384;20.272;2022-11-18T15:18:23;15.70;92.10
23839;DHT22;12100;44.384;20.272;2022-11-18T15:20:52;15.80;92.20
23839;DHT22;12100;44.384;20.272;2022-11-18T15:23:18;15.80;92.30
23839;DHT22;12100;44.384;20.272;2022-11-18T15:25:43;15.70;92.70
23839;DHT22;12100;44.384;20.272;2022-11-18T15:28:09;15.60;93.30
23839;DHT22;12100;44.384;20.272;2022-11-18T15:30:35;15.50;93.50
23839;DHT22;12100;44.384;20.272;2022-11-18T15:33:01;15.40;94.20
23839;DHT22;12100;44.384;20.272;2022-11-18T15:35:27;15.30;95.60
23839;DHT22;12100;44.384;20.272;2022-11-18T15:37:52;15.00;97.40
23839;DHT22;12100;44.384;20.272;2022-11-18T15:40:18;14.90;99.50
23839;DHT22;12100;44.384;20.272;2022-11-18T15:42:44;14.70;99.90
23839;DHT22;12100;44.384;20.272;2022-11-18T15:45:10;14.50;99.90
23839;DHT22;12100;44.384;20.272;2022-11-18T15:47:35;14.40;99.90
23839;DHT22;12100;44.384;20.272;2022-11-18T15:50:01;14.30;99.90
23839;DHT22;12100;44.384;20.272;2022-11-18T15:52:27;14.20;99.90
23839;DHT22;12100;44.384;20.272;2022-11-18T15:54:53;14.10;99.90
23839;DHT22;12100;44.384;20.272;2022-11-18T15:57:19;14.00;99.90
23839;DHT22;12100;44.384;20.272;2022-11-18T15:59:46;13.90;99.90
23839;DHT22;12100;44.384;20.272;2022-11-18T16:02:11;13.90;99.90
23839;DHT22;12100;44.384;20.272;2022-11-18T16:04:37;13.80;99.90
23839;DHT22;12100;44.384;20.272;2022-11-18T16:07:03;13.70;99.90
23839;DHT22;12100;44.384;20.272;2022-11-18T16:09:29;13.70;99.90
23839;DHT22;12100;44.384;20.272;2022-11-18T16:12:16;13.60;99.90
23839;DHT22;12100;44.384;20.272;2022-11-18T16:15:00;13.70;99.90
23839;DHT22;12100;44.384;20.272;2022-11-18T16:17:45;13.50;99.90
23839;DHT22;12100;44.384;20.272;2022-11-18T16:20:11;13.50;99.90
23839;DHT22;12100;44.384;20.272;2022-11-18T16:22:37;13.40;99.90
23839;DHT22;12100;44.384;20.272;2022-11-18T16:25:03;13.40;99.90
23839;DHT22;12100;44.384;20.272;2022-11-18T16:27:28;13.40;99.90
23839;DHT22;12100;44.384;20.272;2022-11-18T16:29:54;13.50;99.90
23839;DHT22;12100;44.384;20.272;2022-11-18T16:32:20;13.60;99.90
23839;DHT22;12100;44.384;20.272;2022-11-18T16:34:46;13.60;99.90
23839;DHT22;12100;44.384;20.272;2022-11-18T16:37:12;13.60;99.90
23839;DHT22;12100;44.384;20.272;2022-11-18T16:39:37;13.70;99.90
23839;DHT22;12100;44.384;20.272;2022-11-18T16:42:03;13.70;99.90
23839;DHT22;12100;44.384;20.272;2022-11-18T16:44:29;13.70;99.90
23839;DHT22;12100;44.384;20.272;2022-11-18T16:46:56;13.70;99.90
23839;DHT22;12100;44.384;20.272;2022-11-18T16:49:24;13.70;99.90
23839;DHT22;12100;44.384;20.272;2022-11-18T16:51:52;13.80;99.90
23839;DHT22;12100;44.384;20.272;2022-11-18T16:54:21;13.90;99.90
23839;DHT22;12100;44.384;20.272;2022-11-18T16:56:48;13.80;99.90
23839;DHT22;12100;44.384;20.272;2022-11-18T16:59:20;13.80;99.90
23839;DHT22;12100;44.384;20.272;2022-11-18T17:01:47;13.80;99.90
23839;DHT22;12100;44.384;20.272;2022-11-18T17:04:13;13.90;99.90
23839;DHT22;12100;44.384;20.272;2022-11-18T17:06:40;13.90;99.90
23839;DHT22;12100;44.384;20.272;2022-11-18T17:09:07;13.90;99.90
23839;DHT22;12100;44.384;20.272;2022-11-18T17:11:36;13.80;99.90
23839;DHT22;12100;44.384;20.272;2022-11-18T17:14:02;13.90;99.90
23839;DHT22;12100;44.384;20.272;2022-11-18T17:16:28;13.90;99.90
23839;DHT22;12100;44.384;20.272;2022-11-18T17:18:55;13.90;99.90
23839;DHT22;12100;44.384;20.272;2022-11-18T17:21:22;13.80;99.90
23839;DHT22;12100;44.384;20.272;2022-11-18T17:23:48;13.80;99.90
23839;DHT22;12100;44.384;20.272;2022-11-18T17:26:17;13.80;99.90
23839;DHT22;12100;44.384;20.272;2022-11-18T17:28:44;13.80;99.90
23839;DHT22;12100;44.384;20.272;2022-11-18T17:31:15;13.70;99.90
23839;DHT22;12100;44.384;20.272;2022-11-18T17:33:41;13.70;99.90
23839;DHT22;12100;44.384;20.272;2022-11-18T17:36:08;13.60;99.90
23839;DHT22;12100;44.384;20.272;2022-11-18T17:38:36;13.60;99.90
23839;DHT22;12100;44.384;20.272;2022-11-18T17:41:03;13.60;99.90
23839;DHT22;12100;44.384;20.272;2022-11-18T17:43:29;13.60;99.90
23839;DHT22;12100;44.384;20.272;2022-11-18T17:45:57;13.60;99.90
23839;DHT22;12100;44.384;20.272;2022-11-18T17:48:25;13.60;99.90
23839;DHT22;12100;44.384;20.272;2022-11-18T17:50:51;13.60;99.90
23839;DHT22;12100;44.384;20.272;2022-11-18T17:53:18;13.60;99.90
23839;DHT22;12100;44.384;20.272;2022-11-18T17:55:45;13.60;99.90
23839;DHT22;12100;44.384;20.272;2022-11-18T17:58:11;13.50;99.90
23839;DHT22;12100;44.384;20.272;2022-11-18T18:00:38;13.40;99.90
23839;DHT22;12100;44.384;20.272;2022-11-18T18:03:04;13.30;99.90
23839;DHT22;12100;44.384;20.272;2022-11-18T18:05:31;13.20;99.90
23839;DHT22;12100;44.384;20.272;2022-11-18T18:07:57;13.20;99.90
23839;DHT22;12100;44.384;20.272;2022-11-18T18:10:24;13.10;99.90
23839;DHT22;12100;44.384;20.272;2022-11-18T18:12:50;13.00;99.90
23839;DHT22;12100;44.384;20.272;2022-11-18T18:15:35;13.00;99.90
23839;DHT22;12100;44.384;20.272;2022-11-18T18:18:01;13.10;99.90
23839;DHT22;12100;44.384;20.272;2022-11-18T18:20:27;13.10;99.90